createdAt,value
2018-01-21T00:01:49.542Z,18.12
2018-01-21T00:04:16.395Z,18.83
2018-01-21T00:06:43.258Z,15.43
2018-01-21T00:09:10.213Z,15.13
2018-01-21T00:11:37.066Z,17.48
2018-01-21T00:14:03.958Z,17.15
2018-01-21T00:16:30.825Z,13.93
2018-01-21T00:18:57.699Z,15.27
2018-01-21T00:21:24.536Z,15.77
2018-01-21T00:23:51.389Z,14.50
2018-01-21T00:26:18.978Z,13.82
2018-01-21T00:28:45.934Z,14.43
2018-01-21T00:31:12.747Z,15.80
2018-01-21T00:33:39.587Z,15.82
2018-01-21T00:36:07.202Z,15.10
2018-01-21T00:38:34.077Z,17.90
2018-01-21T00:41:01.685Z,15.27
2018-01-21T00:43:28.630Z,14.68
2018-01-21T00:45:55.520Z,14.70
2018-01-21T00:48:23.181Z,14.43
2018-01-21T00:50:50.076Z,15.68
2018-01-21T00:53:16.925Z,15.32
2018-01-21T00:55:43.905Z,14.93
2018-01-21T00:58:11.601Z,14.48
2018-01-21T01:00:38.466Z,14.85
2018-01-21T01:03:05.318Z,13.82
2018-01-21T01:05:32.160Z,14.48
2018-01-21T01:07:59.045Z,14.38
2018-01-21T01:10:25.910Z,13.93
2018-01-21T01:12:52.741Z,15.18
2018-01-21T01:15:19.590Z,13.88
2018-01-21T01:17:47.227Z,14.35
2018-01-21T01:20:14.103Z,12.50
2018-01-21T01:22:41.086Z,14.52
2018-01-21T01:25:07.941Z,14.95
2018-01-21T01:27:34.821Z,12.52
2018-01-21T01:30:02.450Z,14.70
2018-01-21T01:32:32.054Z,13.70
2018-01-21T01:34:58.917Z,14.75
2018-01-21T01:37:25.802Z,14.70
2018-01-21T01:39:52.665Z,14.70
2018-01-21T01:42:19.502Z,13.40
2018-01-21T01:44:46.373Z,14.50
2018-01-21T01:47:13.190Z,17.33
2018-01-21T01:49:40.098Z,15.73
2018-01-21T01:52:07.690Z,14.68
2018-01-21T01:54:34.513Z,15.25
2018-01-21T01:57:01.378Z,14.98
2018-01-21T01:59:28.246Z,16.10
2018-01-21T02:01:55.084Z,15.35
2018-01-21T02:04:22.734Z,14.93
2018-01-21T02:06:49.590Z,15.38
2018-01-21T02:09:16.464Z,14.82
2018-01-21T02:11:43.406Z,14.43
2018-01-21T02:14:10.258Z,13.80
2018-01-21T02:16:37.078Z,12.70
2018-01-21T02:19:04.063Z,15.20
2018-01-21T02:21:31.674Z,14.27
2018-01-21T02:23:58.510Z,14.90
2018-01-21T02:26:25.385Z,15.15
2018-01-21T02:28:52.217Z,15.07
2018-01-21T02:31:19.106Z,12.93
2018-01-21T02:33:45.946Z,13.93
2018-01-21T02:36:12.798Z,13.27
2018-01-21T02:38:40.430Z,14.35
2018-01-21T02:41:07.248Z,12.93
2018-01-21T02:43:34.121Z,13.00
2018-01-21T02:46:01.727Z,12.80
2018-01-21T02:48:28.632Z,13.70
2018-01-21T02:50:55.530Z,14.50
2018-01-21T02:53:22.401Z,13.98
2018-01-21T02:55:49.989Z,14.80
2018-01-21T02:58:17.623Z,11.38
2018-01-21T03:00:45.218Z,12.75
2018-01-21T03:03:12.086Z,13.80
2018-01-21T03:05:38.953Z,12.07
2018-01-21T03:08:05.813Z,13.30
2018-01-21T03:10:32.638Z,13.18
2018-01-21T03:12:59.514Z,11.95
2018-01-21T03:15:27.114Z,13.45
2018-01-21T03:17:53.997Z,13.57
2018-01-21T03:20:21.634Z,14.87
2018-01-21T03:22:48.486Z,13.45
2018-01-21T03:25:15.302Z,13.10
2018-01-21T03:27:43.042Z,13.82
2018-01-21T03:30:09.909Z,13.40
2018-01-21T03:32:36.747Z,14.80
2018-01-21T03:35:03.622Z,13.43
2018-01-21T03:37:30.473Z,12.50
2018-01-21T03:39:57.357Z,13.93
2018-01-21T03:42:24.926Z,14.05
2018-01-21T03:44:51.807Z,14.50
2018-01-21T03:47:18.685Z,12.93
2018-01-21T03:49:45.523Z,15.55
2018-01-21T03:52:12.402Z,13.00
2018-01-21T03:54:39.248Z,14.45
2018-01-21T03:57:06.098Z,13.52
2018-01-21T03:59:32.941Z,13.95
2018-01-21T04:01:59.782Z,14.70
2018-01-21T04:04:26.653Z,15.07
2018-01-21T04:06:53.470Z,13.48
2018-01-21T04:09:20.330Z,16.30
2018-01-21T04:11:47.193Z,15.10
2018-01-21T04:14:14.045Z,12.30
2018-01-21T04:16:41.727Z,13.00
2018-01-21T04:19:09.346Z,15.15
2018-01-21T04:21:36.201Z,14.48
2018-01-21T04:24:03.071Z,14.95
2018-01-21T04:26:30.651Z,14.60
2018-01-21T04:28:57.568Z,15.68
2018-01-21T04:31:25.145Z,13.45
2018-01-21T04:33:52.010Z,15.82
2018-01-21T04:36:18.902Z,14.60
2018-01-21T04:38:46.565Z,15.10
2018-01-21T04:41:13.416Z,13.50
2018-01-21T04:43:41.057Z,12.95
2018-01-21T04:46:07.904Z,14.32
2018-01-21T04:48:34.849Z,13.98
2018-01-21T04:51:01.706Z,14.23
2018-01-21T04:53:29.334Z,15.80
2018-01-21T04:55:56.209Z,15.25
2018-01-21T04:58:23.141Z,13.93
2018-01-21T05:00:50.035Z,16.08
2018-01-21T05:03:16.878Z,15.02
2018-01-21T05:05:43.758Z,16.15
2018-01-21T05:08:10.649Z,13.75
2018-01-21T05:10:37.539Z,15.77
2018-01-21T05:13:04.397Z,15.05
2018-01-21T05:15:31.368Z,15.85
2018-01-21T05:17:58.184Z,15.45
2018-01-21T05:20:25.023Z,14.15
2018-01-21T05:22:51.881Z,13.40
2018-01-21T05:25:18.826Z,16.30
2018-01-21T05:27:46.485Z,13.93
2018-01-21T05:30:13.321Z,14.65
2018-01-21T05:32:40.166Z,15.00
2018-01-21T05:35:07.026Z,15.55
2018-01-21T05:37:34.688Z,16.48
2018-01-21T05:40:02.346Z,14.40
2018-01-21T05:42:29.953Z,15.48
2018-01-21T05:44:56.818Z,15.70
2018-01-21T05:47:23.660Z,15.13
2018-01-21T05:49:50.504Z,14.40
2018-01-21T05:52:17.320Z,15.95
2018-01-21T05:54:44.185Z,15.57
2018-01-21T05:57:11.047Z,16.35
2018-01-21T05:59:37.877Z,14.98
2018-01-21T06:02:04.754Z,15.70
2018-01-21T06:04:31.609Z,14.93
2018-01-21T06:06:58.531Z,16.55
2018-01-21T06:09:25.554Z,15.10
2018-01-21T06:11:52.454Z,16.50
2018-01-21T06:14:19.349Z,16.83
2018-01-21T06:16:46.620Z,16.10
2018-01-21T06:19:13.609Z,16.25
2018-01-21T06:21:40.709Z,18.83
2018-01-21T06:24:07.610Z,18.95
2018-01-21T06:26:34.451Z,17.25
2018-01-21T06:29:01.502Z,17.15
2018-01-21T06:31:29.176Z,17.75
2018-01-21T06:33:56.789Z,17.12
2018-01-21T06:36:24.366Z,18.27
2018-01-21T06:38:51.346Z,17.23
2018-01-21T06:41:18.163Z,18.87
2018-01-21T06:43:45.038Z,17.77
2018-01-21T06:46:11.893Z,18.40
2018-01-21T06:48:38.830Z,14.98
2018-01-21T06:51:05.681Z,15.57
2018-01-21T06:53:32.541Z,17.45
2018-01-21T06:55:59.409Z,14.57
2018-01-21T06:58:26.346Z,15.52
2018-01-21T07:00:53.197Z,17.40
2018-01-21T07:03:20.047Z,17.37
2018-01-21T07:05:46.931Z,17.30
2018-01-21T07:08:14.042Z,20.23
2018-01-21T07:10:41.194Z,22.25
2018-01-21T07:13:08.119Z,20.80
2018-01-21T07:15:34.957Z,21.70
2018-01-21T07:18:02.613Z,21.27
2018-01-21T07:20:30.201Z,21.98
2018-01-21T07:22:57.063Z,22.42
2018-01-21T07:25:23.937Z,20.95
2018-01-21T07:27:51.912Z,23.42
2018-01-21T07:30:19.502Z,23.60
2018-01-21T07:32:47.149Z,23.45
2018-01-21T07:35:14.046Z,21.98
2018-01-21T07:37:41.937Z,19.65
2018-01-21T07:40:08.966Z,20.92
2018-01-21T07:42:35.817Z,23.33
2018-01-21T07:45:02.918Z,23.00
2018-01-21T07:47:29.958Z,20.37
2018-01-21T07:49:57.514Z,20.77
2018-01-21T07:52:25.102Z,21.55
2018-01-21T07:54:51.969Z,21.73
2018-01-21T07:57:18.791Z,21.45
2018-01-21T07:59:45.679Z,20.60
2018-01-21T08:02:13.277Z,22.77
2018-01-21T08:04:40.495Z,20.75
2018-01-21T08:07:07.566Z,20.62
2018-01-21T08:09:34.470Z,20.70
2018-01-21T08:12:01.314Z,20.98
2018-01-21T08:14:28.158Z,21.17
2018-01-21T08:16:55.010Z,22.08
2018-01-21T08:19:21.942Z,19.65
2018-01-21T08:21:48.828Z,21.12
2018-01-21T08:24:16.395Z,21.08
2018-01-21T08:26:43.959Z,20.62
2018-01-21T08:29:10.895Z,20.45
2018-01-21T08:31:37.734Z,20.95
2018-01-21T08:34:10.714Z,19.67
2018-01-21T08:36:44.301Z,20.50
2018-01-21T08:39:17.925Z,20.58
2018-01-21T08:41:45.554Z,20.42
2018-01-21T08:44:13.236Z,18.90
2018-01-21T08:46:40.154Z,17.70
2018-01-21T08:49:07.126Z,18.45
2018-01-21T08:51:34.696Z,16.90
2018-01-21T08:54:01.626Z,14.82
2018-01-21T08:56:28.482Z,18.25
2018-01-21T08:58:56.105Z,15.95
2018-01-21T09:01:22.969Z,17.70
2018-01-21T09:03:50.578Z,18.05
2018-01-21T09:06:17.493Z,17.98
2018-01-21T09:08:45.278Z,17.50
2018-01-21T09:11:12.171Z,18.48
2018-01-21T09:13:39.030Z,15.10
2018-01-21T09:16:06.625Z,16.98
2018-01-21T09:18:33.510Z,16.27
2018-01-21T09:21:00.378Z,16.48
2018-01-21T09:23:27.230Z,17.58
2018-01-21T09:25:54.801Z,15.85
2018-01-21T09:28:22.454Z,18.08
2018-01-21T09:30:50.019Z,17.08
2018-01-21T09:33:17.558Z,19.02
2018-01-21T09:35:44.402Z,15.82
2018-01-21T09:38:12.082Z,15.20
2018-01-21T09:40:38.893Z,15.45
2018-01-21T09:43:05.770Z,15.85
2018-01-21T09:45:32.634Z,15.02
2018-01-21T09:47:59.702Z,15.30
2018-01-21T09:50:26.594Z,17.83
2018-01-21T09:52:54.186Z,17.45
2018-01-21T09:55:21.069Z,16.25
2018-01-21T09:57:48.754Z,17.12
2018-01-21T10:00:16.342Z,19.37
2018-01-21T10:02:43.210Z,18.08
2018-01-21T10:05:10.814Z,18.02
2018-01-21T10:07:38.465Z,17.23
2018-01-21T10:10:06.134Z,16.70
2018-01-21T10:12:33.755Z,16.20
2018-01-21T10:15:00.642Z,17.75
2018-01-21T10:17:27.605Z,16.75
2018-01-21T10:19:54.521Z,16.50
2018-01-21T10:22:22.110Z,16.57
2018-01-21T10:24:48.982Z,13.43
2018-01-21T10:27:15.921Z,15.10
2018-01-21T10:29:42.825Z,14.77
2018-01-21T10:32:09.930Z,15.37
2018-01-21T10:34:36.762Z,15.67
2018-01-21T10:37:03.594Z,15.87
2018-01-21T10:39:30.565Z,14.90
2018-01-21T10:41:57.414Z,15.00
2018-01-21T10:44:24.270Z,16.03
2018-01-21T10:46:51.151Z,14.67
2018-01-21T10:49:18.821Z,14.00
2018-01-21T10:51:46.398Z,14.27
2018-01-21T10:54:13.241Z,14.83
2018-01-21T10:56:40.159Z,16.00
2018-01-21T10:59:07.830Z,16.03
2018-01-21T11:01:34.663Z,16.53
2018-01-21T11:04:01.542Z,17.10
2018-01-21T11:06:28.369Z,15.60
2018-01-21T11:08:55.247Z,15.80
2018-01-21T11:11:22.286Z,15.80
2018-01-21T11:13:49.122Z,15.07
2018-01-21T11:16:15.966Z,14.97
2018-01-21T11:18:42.965Z,13.60
2018-01-21T11:21:10.561Z,14.77
2018-01-21T11:23:37.390Z,14.03
2018-01-21T11:26:04.281Z,13.60
2018-01-21T11:28:31.133Z,14.63
2018-01-21T11:30:57.997Z,14.30
2018-01-21T11:33:25.578Z,13.67
2018-01-21T11:35:52.450Z,10.40
2018-01-21T11:38:19.443Z,4.60
2018-01-21T11:40:47.037Z,1.10
2018-01-21T11:43:13.909Z,0.83
2018-01-21T11:45:40.738Z,0.70
2018-01-21T11:48:07.597Z,0.70
2018-01-21T11:50:34.506Z,0.80
2018-01-21T11:53:01.354Z,0.87
2018-01-21T11:55:28.182Z,0.77
2018-01-21T11:57:55.234Z,0.80
2018-01-21T12:00:22.070Z,0.73
2018-01-21T12:02:48.945Z,0.97
2018-01-21T12:05:15.781Z,0.80
2018-01-21T12:07:43.733Z,0.80
2018-01-21T12:10:10.630Z,0.87
2018-01-21T12:12:37.466Z,0.77
2018-01-21T12:15:04.286Z,0.77
2018-01-21T12:17:31.219Z,1.30
2018-01-21T12:19:58.047Z,0.70
2018-01-21T12:22:24.927Z,0.83
2018-01-21T12:24:51.784Z,0.80
2018-01-21T12:27:18.758Z,0.83
2018-01-21T12:29:46.368Z,0.90
2018-01-21T12:32:13.225Z,1.00
2018-01-21T12:34:40.049Z,0.70
2018-01-21T12:37:06.936Z,1.10
2018-01-21T12:39:33.853Z,0.70
2018-01-21T12:42:00.717Z,0.70
2018-01-21T12:44:27.549Z,0.93
2018-01-21T12:46:54.413Z,0.60
2018-01-21T12:49:22.065Z,1.00
2018-01-21T12:51:49.669Z,0.70
2018-01-21T12:54:16.549Z,0.70
2018-01-21T12:56:43.412Z,1.37
2018-01-21T12:59:10.343Z,0.60
2018-01-21T13:01:37.189Z,0.70
2018-01-21T13:04:04.774Z,0.70
2018-01-21T13:06:32.341Z,1.00
2018-01-21T13:08:59.984Z,0.67
2018-01-21T13:11:26.826Z,0.60
2018-01-21T13:13:54.421Z,0.53
2018-01-21T13:16:21.256Z,0.50
2018-01-21T13:18:48.165Z,0.90
2018-01-21T13:21:15.790Z,0.50
2018-01-21T13:23:42.641Z,0.50
2018-01-21T13:26:09.516Z,0.67
2018-01-21T13:28:37.162Z,1.00
2018-01-21T13:31:04.042Z,0.60
2018-01-21T13:33:31.665Z,1.00
2018-01-21T13:35:58.510Z,3.13
2018-01-21T13:38:25.585Z,0.87
2018-01-21T13:40:52.426Z,0.70
2018-01-21T13:43:20.034Z,0.80
2018-01-21T13:45:46.934Z,0.97
2018-01-21T13:48:13.877Z,0.80
2018-01-21T13:50:40.758Z,0.60
2018-01-21T13:53:07.687Z,0.77
2018-01-21T13:55:34.546Z,0.50
2018-01-21T13:58:01.429Z,1.30
2018-01-21T14:00:28.614Z,2.90
2018-01-21T14:02:56.185Z,5.17
2018-01-21T14:05:23.037Z,2.10
2018-01-21T14:07:49.993Z,3.23
2018-01-21T14:10:16.843Z,1.10
2018-01-21T14:12:43.709Z,1.30
2018-01-21T14:15:11.310Z,1.87
2018-01-21T14:17:38.952Z,1.00
2018-01-21T14:20:05.817Z,0.90
2018-01-21T14:22:32.688Z,0.80
2018-01-21T14:24:59.565Z,0.70
2018-01-21T14:27:26.520Z,0.90
2018-01-21T14:29:53.389Z,0.90
2018-01-21T14:32:20.249Z,1.10
2018-01-21T14:34:47.103Z,0.73
2018-01-21T14:37:14.019Z,1.10
2018-01-21T14:39:40.936Z,0.70
2018-01-21T14:42:08.609Z,0.85
2018-01-21T14:44:36.245Z,0.97
2018-01-21T14:47:03.106Z,0.60
2018-01-21T14:49:30.749Z,0.70
2018-01-21T14:51:57.657Z,1.10
2018-01-21T14:54:24.526Z,0.82
2018-01-21T14:56:51.449Z,0.70
2018-01-21T14:59:18.337Z,0.70
2018-01-21T15:01:45.221Z,0.60
2018-01-21T15:04:12.083Z,0.80
2018-01-21T15:06:38.990Z,0.68
2018-01-21T15:09:06.669Z,1.08
2018-01-21T15:11:33.561Z,0.80
2018-01-21T15:14:00.430Z,1.90
2018-01-21T15:16:27.326Z,0.60
2018-01-21T15:18:54.210Z,1.10
2018-01-21T15:21:21.064Z,1.00
2018-01-21T15:23:49.491Z,0.85
2018-01-21T15:26:16.349Z,0.95
2018-01-21T15:28:43.217Z,0.73
2018-01-21T15:31:10.856Z,1.20
2018-01-21T15:33:37.705Z,0.98
2018-01-21T15:36:04.537Z,3.08
2018-01-21T15:38:31.445Z,1.30
2018-01-21T15:40:58.301Z,1.77
2018-01-21T15:43:25.170Z,1.40
2018-01-21T15:45:52.831Z,2.50
2018-01-21T15:48:19.906Z,1.48
2018-01-21T15:50:46.745Z,1.50
2018-01-21T15:53:15.026Z,1.55
2018-01-21T15:55:42.209Z,1.50
2018-01-21T15:58:09.314Z,2.17
2018-01-21T16:00:44.998Z,1.65
2018-01-21T16:03:12.862Z,2.60
2018-01-21T16:05:40.178Z,1.10
2018-01-21T16:08:07.486Z,1.40
2018-01-21T16:10:34.463Z,1.10
2018-01-21T16:13:01.381Z,0.90
2018-01-21T16:15:28.594Z,1.30
2018-01-21T16:17:55.998Z,1.83
2018-01-21T16:20:22.895Z,1.10
2018-01-21T16:22:50.535Z,1.42
2018-01-21T16:25:17.694Z,1.25
2018-01-21T16:27:44.713Z,1.00
2018-01-21T16:30:12.529Z,1.42
2018-01-21T16:32:39.542Z,1.00
2018-01-21T16:35:07.123Z,0.90
2018-01-21T16:37:46.350Z,0.62
2018-01-21T16:40:14.180Z,1.35
2018-01-21T16:42:41.631Z,0.90
2018-01-21T16:45:08.717Z,1.67
2018-01-21T16:47:35.699Z,1.60
2018-01-21T16:50:02.666Z,1.20
2018-01-21T16:52:29.637Z,1.25
2018-01-21T16:54:56.570Z,1.02
2018-01-21T16:57:34.970Z,1.17
2018-01-21T17:00:01.995Z,0.85
2018-01-21T17:02:28.900Z,2.37
2018-01-21T17:04:55.899Z,2.83
2018-01-21T17:07:22.974Z,3.92
2018-01-21T17:09:49.936Z,3.17
2018-01-21T17:12:16.966Z,2.58
2018-01-21T17:14:43.901Z,1.92
2018-01-21T17:17:10.812Z,2.60
2018-01-21T17:19:37.876Z,1.45
2018-01-21T17:22:04.838Z,1.50
2018-01-21T17:24:31.782Z,2.62
2018-01-21T17:26:58.693Z,1.70
2018-01-21T17:29:25.674Z,1.70
2018-01-21T17:31:52.686Z,3.40
2018-01-21T17:34:19.723Z,1.90
2018-01-21T17:36:46.771Z,1.60
2018-01-21T17:39:13.869Z,1.65
2018-01-21T17:41:40.950Z,1.40
2018-01-21T17:44:08.811Z,2.08
2018-01-21T17:46:35.914Z,2.42
2018-01-21T17:49:02.979Z,2.58
2018-01-21T17:51:30.063Z,2.80
2018-01-21T17:53:57.215Z,2.20
2018-01-21T17:56:24.187Z,1.98
2018-01-21T17:58:51.140Z,1.77
2018-01-21T18:01:18.070Z,2.55
2018-01-21T18:03:44.948Z,1.50
2018-01-21T18:06:11.838Z,1.20
2018-01-21T18:08:39.683Z,1.20
2018-01-21T18:11:06.722Z,1.83
2018-01-21T18:13:33.674Z,1.50
2018-01-21T18:16:00.670Z,1.83
2018-01-21T18:18:27.593Z,1.40
2018-01-21T18:20:55.459Z,1.30
2018-01-21T18:23:22.534Z,1.90
2018-01-21T18:25:49.502Z,2.92
2018-01-21T18:28:16.675Z,2.30
2018-01-21T18:30:43.727Z,2.03
2018-01-21T18:33:11.472Z,1.50
2018-01-21T18:35:38.330Z,1.30
2018-01-21T18:38:06.050Z,1.45
2018-01-21T18:40:33.161Z,1.92
2018-01-21T18:43:00.825Z,1.83
2018-01-21T18:45:27.748Z,2.05
2018-01-21T18:47:54.881Z,2.30
2018-01-21T18:50:22.032Z,1.90
2018-01-21T18:52:49.915Z,2.50
2018-01-21T18:55:16.976Z,1.98
2018-01-21T18:57:44.279Z,1.98
2018-01-21T19:00:12.003Z,2.30
2018-01-21T19:02:39.030Z,2.03
2018-01-21T19:05:05.954Z,2.12
2018-01-21T19:07:33.057Z,2.55
2018-01-21T19:10:00.097Z,2.30
2018-01-21T19:12:27.189Z,3.20
2018-01-21T19:14:54.241Z,4.95
2018-01-21T19:17:21.446Z,7.35
2018-01-21T19:19:49.166Z,9.25
2018-01-21T19:22:16.787Z,8.68
2018-01-21T19:24:43.878Z,9.95
2018-01-21T19:27:11.551Z,10.18
2018-01-21T19:29:38.470Z,8.45
2018-01-21T19:32:07.465Z,10.70
2018-01-21T19:34:34.467Z,8.88
2018-01-21T19:37:01.498Z,9.30
2018-01-21T19:39:35.486Z,8.48
2018-01-21T19:42:07.517Z,8.15
2018-01-21T19:44:34.710Z,7.72
2018-01-21T19:47:01.735Z,8.50
2018-01-21T19:49:28.819Z,6.12
2018-01-21T19:51:55.931Z,5.78
2018-01-21T19:54:23.126Z,6.55
2018-01-21T19:56:50.181Z,7.15
2018-01-21T19:59:18.086Z,6.15
2018-01-21T20:01:45.083Z,5.95
2018-01-21T20:04:12.684Z,5.07
2018-01-21T20:06:39.554Z,6.03
2018-01-21T20:09:06.989Z,5.20
2018-01-21T20:11:33.885Z,5.25
2018-01-21T20:14:01.721Z,4.72
2018-01-21T20:16:28.841Z,4.43
2018-01-21T20:18:55.752Z,3.22
2018-01-21T20:21:23.382Z,4.20
2018-01-21T20:23:50.527Z,6.10
2018-01-21T20:26:17.441Z,7.70
2018-01-21T20:28:44.344Z,8.63
2018-01-21T20:31:11.214Z,3.92
2018-01-21T20:33:38.070Z,3.62
2018-01-21T20:36:04.921Z,2.28
2018-01-21T20:38:31.809Z,2.12
2018-01-21T20:40:59.404Z,3.35
2018-01-21T20:46:00.202Z,3.35
2018-01-21T20:48:27.571Z,2.33
2018-01-21T20:51:00.615Z,3.08
2018-01-21T20:53:34.373Z,2.42
2018-01-21T20:56:02.006Z,2.25
2018-01-21T20:58:28.906Z,2.70
2018-01-21T21:00:55.785Z,3.20
2018-01-21T21:03:22.641Z,3.25
2018-01-21T21:05:49.515Z,3.20
2018-01-21T21:08:16.501Z,3.30
2018-01-21T21:10:43.782Z,2.10
2018-01-21T21:13:11.574Z,2.30
2018-01-21T21:15:39.407Z,2.80
2018-01-21T21:18:06.362Z,4.20
2018-01-21T21:20:33.241Z,3.22
2018-01-21T21:23:00.857Z,3.40
2018-01-21T21:25:27.701Z,3.58
2018-01-21T21:27:54.922Z,2.95
2018-01-21T21:30:21.838Z,3.50
2018-01-21T21:32:48.686Z,4.10
2018-01-21T21:35:16.331Z,3.72
2018-01-21T21:37:43.325Z,3.60
2018-01-21T21:40:10.178Z,3.22
2018-01-21T21:42:37.153Z,3.55
2018-01-21T21:45:04.786Z,3.53
2018-01-21T21:47:32.855Z,3.22
2018-01-21T21:49:59.811Z,2.95
2018-01-21T21:52:26.697Z,3.60
2018-01-21T21:54:53.562Z,3.08
2018-01-21T21:57:20.441Z,4.00
2018-01-21T21:59:47.322Z,3.83
2018-01-21T22:02:14.914Z,3.90
2018-01-21T22:04:42.478Z,5.70
2018-01-21T22:07:09.350Z,7.82
2018-01-21T22:09:37.063Z,8.40
2018-01-21T22:12:03.890Z,12.10
2018-01-21T22:14:30.749Z,12.32
2018-01-21T22:16:58.346Z,13.98
2018-01-21T22:19:25.273Z,10.80
2018-01-21T22:21:52.114Z,12.60
2018-01-21T22:24:18.980Z,10.98
2018-01-21T22:26:45.861Z,10.35
2018-01-21T22:29:12.846Z,9.05
2018-01-21T22:31:39.730Z,7.95
2018-01-21T22:34:06.570Z,9.98
2018-01-21T22:36:33.402Z,8.95
2018-01-21T22:39:00.271Z,10.10
2018-01-21T22:41:27.101Z,8.40
2018-01-21T22:43:53.949Z,8.25
2018-01-21T22:46:20.762Z,8.95
2018-01-21T22:48:47.694Z,8.50
2018-01-21T22:51:14.566Z,8.18
2018-01-21T22:53:41.487Z,7.97
2018-01-21T22:56:08.310Z,7.72
2018-01-21T22:58:35.940Z,8.18
2018-01-21T23:01:02.814Z,7.10
2018-01-21T23:03:30.414Z,6.75
2018-01-21T23:05:57.270Z,7.97
2018-01-21T23:08:24.984Z,7.15
2018-01-21T23:10:51.812Z,7.57
2018-01-21T23:13:19.433Z,6.55
2018-01-21T23:15:46.303Z,7.45
2018-01-21T23:18:13.381Z,7.72
2018-01-21T23:20:52.477Z,7.45
2018-01-21T23:23:19.398Z,9.57
2018-01-21T23:25:46.240Z,8.30
2018-01-21T23:28:13.111Z,9.00
2018-01-21T23:30:39.983Z,7.62
2018-01-21T23:33:06.857Z,8.25
2018-01-21T23:35:33.709Z,7.95
2018-01-21T23:38:00.645Z,7.55
2018-01-21T23:40:27.530Z,8.20
2018-01-21T23:42:54.400Z,7.78
2018-01-21T23:45:21.318Z,8.00
2018-01-21T23:47:48.266Z,7.12
2018-01-21T23:50:15.280Z,7.87
2018-01-21T23:52:42.154Z,6.32
2018-01-21T23:55:08.994Z,6.10
2018-01-21T23:57:36.779Z,4.93
